createdAt,value
2022-12-03T00:01:35.131Z,0.81
2022-12-03T00:04:03.566Z,0.83
2022-12-03T00:06:34.668Z,0.84
2022-12-03T00:09:04.775Z,0.86
2022-12-03T00:11:32.953Z,0.88
2022-12-03T00:14:01.010Z,0.90
2022-12-03T00:16:29.241Z,0.94
2022-12-03T00:18:57.431Z,0.97
2022-12-03T00:21:25.812Z,1.00
2022-12-03T00:23:53.994Z,1.05
2022-12-03T00:26:22.569Z,1.08
2022-12-03T00:28:51.321Z,1.11
2022-12-03T00:31:21.461Z,1.14
2022-12-03T00:33:53.440Z,1.18
2022-12-03T00:36:21.622Z,1.20
2022-12-03T00:38:49.528Z,1.23
2022-12-03T00:41:17.562Z,1.28
2022-12-03T00:43:45.625Z,1.32
2022-12-03T00:46:16.963Z,1.35
2022-12-03T00:48:47.917Z,1.38
2022-12-03T00:51:16.087Z,1.41
2022-12-03T00:53:44.160Z,1.43
2022-12-03T00:56:12.265Z,1.46
2022-12-03T00:58:40.357Z,1.49
2022-12-03T01:01:08.536Z,1.52
2022-12-03T01:03:36.856Z,1.54
2022-12-03T01:06:05.032Z,1.57
2022-12-03T01:08:33.034Z,1.60
2022-12-03T01:11:01.029Z,1.62
2022-12-03T01:13:29.349Z,1.64
2022-12-03T01:15:57.363Z,1.66
2022-12-03T01:18:25.429Z,1.69
2022-12-03T01:20:53.464Z,1.71
2022-12-03T01:23:21.534Z,1.73
2022-12-03T01:25:49.606Z,1.75
2022-12-03T01:28:17.678Z,1.78
2022-12-03T01:31:04.141Z,1.79
2022-12-03T01:33:32.254Z,1.81
2022-12-03T01:36:00.224Z,1.82
2022-12-03T01:38:28.245Z,1.83
2022-12-03T01:40:56.572Z,1.84
2022-12-03T01:43:24.644Z,1.85
2022-12-03T01:45:52.660Z,1.86
2022-12-03T01:48:20.703Z,1.88
2022-12-03T01:50:48.859Z,1.90
2022-12-03T01:53:19.093Z,1.92
2022-12-03T01:55:49.026Z,1.93
2022-12-03T01:58:22.420Z,1.95
2022-12-03T02:00:50.721Z,1.96
2022-12-03T02:03:23.507Z,1.96
2022-12-03T02:05:52.607Z,1.97
2022-12-03T02:08:35.432Z,1.97
2022-12-03T02:11:11.732Z,1.98
2022-12-03T02:13:40.214Z,1.99
2022-12-03T02:16:08.880Z,1.98
2022-12-03T02:18:37.177Z,1.98
2022-12-03T02:21:17.185Z,1.98
2022-12-03T02:23:51.251Z,1.97
2022-12-03T02:26:19.468Z,1.97
2022-12-03T02:28:47.599Z,1.96
2022-12-03T02:31:15.943Z,1.97
2022-12-03T02:33:44.554Z,1.97
2022-12-03T02:36:13.110Z,1.98
2022-12-03T02:38:43.220Z,1.98
2022-12-03T02:41:35.968Z,1.98
2022-12-03T02:44:06.854Z,1.99
2022-12-03T02:46:35.729Z,1.99
2022-12-03T02:49:06.309Z,1.99
2022-12-03T02:51:35.052Z,2.00
2022-12-03T02:54:03.807Z,2.01
2022-12-03T02:56:33.433Z,2.02
2022-12-03T02:59:05.023Z,2.03
2022-12-03T03:01:34.991Z,2.03
2022-12-03T03:04:04.631Z,2.03
2022-12-03T03:06:32.909Z,2.03
2022-12-03T03:09:01.187Z,2.04
2022-12-03T03:11:29.457Z,2.05
2022-12-03T03:13:57.735Z,2.05
2022-12-03T03:16:25.864Z,2.05
2022-12-03T03:18:53.979Z,2.05
2022-12-03T03:21:22.054Z,2.05
2022-12-03T03:23:50.022Z,2.05
2022-12-03T03:26:18.201Z,2.05
2022-12-03T03:28:49.957Z,2.04
2022-12-03T03:31:22.908Z,2.04
2022-12-03T03:33:52.036Z,2.04
2022-12-03T03:36:20.824Z,2.05
2022-12-03T03:38:49.511Z,2.05
2022-12-03T03:41:18.813Z,2.05
2022-12-03T03:43:47.708Z,2.05
2022-12-03T03:46:17.504Z,2.04
2022-12-03T03:48:48.446Z,2.04
2022-12-03T03:51:17.653Z,2.04
2022-12-03T03:53:48.445Z,2.04
2022-12-03T03:56:19.343Z,2.05
2022-12-03T03:58:47.607Z,2.05
2022-12-03T04:01:17.269Z,2.05
2022-12-03T04:03:45.420Z,2.06
2022-12-03T04:06:13.459Z,2.05
2022-12-03T04:08:41.429Z,2.05
2022-12-03T04:11:28.043Z,2.05
2022-12-03T04:13:56.146Z,2.06
2022-12-03T04:16:24.340Z,2.05
2022-12-03T04:18:52.560Z,2.05
2022-12-03T04:21:41.747Z,2.05
2022-12-03T04:24:10.820Z,2.04
2022-12-03T04:26:57.530Z,2.02
2022-12-03T04:29:25.601Z,2.02
2022-12-03T04:32:12.286Z,2.01
2022-12-03T04:34:58.966Z,1.99
2022-12-03T04:37:27.296Z,1.97
2022-12-03T04:39:55.470Z,1.94
2022-12-03T04:42:23.542Z,1.92
2022-12-03T04:44:52.276Z,1.91
2022-12-03T04:47:21.972Z,1.87
2022-12-03T04:49:52.087Z,1.86
2022-12-03T04:52:21.227Z,1.84
2022-12-03T04:54:49.440Z,1.80
2022-12-03T04:57:17.919Z,1.77
2022-12-03T04:59:46.201Z,1.74
2022-12-03T05:02:14.425Z,1.70
2022-12-03T05:04:43.673Z,1.65
2022-12-03T05:07:11.848Z,1.60
2022-12-03T05:09:39.907Z,1.55
2022-12-03T05:12:08.287Z,1.50
2022-12-03T05:14:36.767Z,1.44
2022-12-03T05:17:04.912Z,1.38
2022-12-03T05:19:51.961Z,1.31
2022-12-03T05:22:20.115Z,1.23
2022-12-03T05:24:48.386Z,1.16
2022-12-03T05:27:21.769Z,1.08
2022-12-03T05:29:52.137Z,0.98
2022-12-03T05:32:20.409Z,0.90
2022-12-03T05:34:48.635Z,0.84
2022-12-03T05:37:16.758Z,0.78
2022-12-03T05:39:44.937Z,0.73
2022-12-03T05:42:31.689Z,0.69
2022-12-03T05:44:59.915Z,0.65
2022-12-03T05:47:27.936Z,0.61
2022-12-03T05:49:56.039Z,0.57
2022-12-03T05:52:24.235Z,0.53
2022-12-03T05:54:52.600Z,0.48
2022-12-03T05:57:20.932Z,0.42
2022-12-03T05:59:49.036Z,0.38
2022-12-03T06:02:17.260Z,0.34
2022-12-03T06:04:45.767Z,0.31
2022-12-03T06:07:14.457Z,0.28
2022-12-03T06:09:42.682Z,0.28
2022-12-03T06:12:10.653Z,0.27
2022-12-03T06:14:39.045Z,0.26
2022-12-03T06:17:07.316Z,0.27
2022-12-03T06:19:35.491Z,0.28
2022-12-03T06:22:03.671Z,0.30
2022-12-03T06:24:31.837Z,0.33
2022-12-03T06:26:59.908Z,0.36
2022-12-03T06:29:27.980Z,0.39
2022-12-03T06:31:56.051Z,0.45
2022-12-03T06:34:24.139Z,0.51
2022-12-03T06:36:52.396Z,0.58
2022-12-03T06:39:22.748Z,0.65
2022-12-03T06:41:51.101Z,0.71
2022-12-03T06:44:19.183Z,0.77
2022-12-03T06:46:47.597Z,0.84
2022-12-03T06:49:15.825Z,0.92
2022-12-03T06:51:43.816Z,0.99
2022-12-03T06:54:12.484Z,1.09
2022-12-03T06:56:45.170Z,1.18
2022-12-03T06:59:13.963Z,1.28
2022-12-03T07:01:42.331Z,1.38
2022-12-03T07:04:10.683Z,1.47
2022-12-03T07:06:39.086Z,1.55
2022-12-03T07:09:07.262Z,1.64
2022-12-03T07:11:40.682Z,1.73
2022-12-03T07:14:11.630Z,1.83
2022-12-03T07:16:40.496Z,1.92
2022-12-03T07:19:09.382Z,2.00
2022-12-03T07:21:37.519Z,2.08
2022-12-03T07:24:06.756Z,2.15
2022-12-03T07:26:34.823Z,2.25
2022-12-03T07:29:03.515Z,2.36
2022-12-03T07:31:32.015Z,2.45
2022-12-03T07:34:00.069Z,2.55
2022-12-03T07:36:28.217Z,2.65
2022-12-03T07:38:56.309Z,2.74
2022-12-03T07:41:24.277Z,2.85
2022-12-03T07:43:52.350Z,2.94
2022-12-03T07:46:20.558Z,3.03
2022-12-03T07:48:48.598Z,3.12
2022-12-03T07:51:16.669Z,3.17
2022-12-03T07:53:44.739Z,3.22
2022-12-03T07:56:13.018Z,3.26
2022-12-03T07:58:41.208Z,3.28
2022-12-03T08:01:10.500Z,3.30
2022-12-03T08:03:38.773Z,3.32
2022-12-03T08:06:07.148Z,3.33
2022-12-03T08:08:35.424Z,3.32
2022-12-03T08:11:04.185Z,3.30
2022-12-03T08:13:34.335Z,3.29
2022-12-03T08:16:14.050Z,3.30
2022-12-03T08:18:42.111Z,3.30
2022-12-03T08:21:12.889Z,3.30
2022-12-03T08:23:41.751Z,3.30
2022-12-03T08:26:30.130Z,3.30
2022-12-03T08:28:58.216Z,3.32
2022-12-03T08:31:32.792Z,3.34
2022-12-03T08:34:23.009Z,3.37
2022-12-03T08:36:56.358Z,3.40
2022-12-03T08:39:30.540Z,3.41
2022-12-03T08:42:28.291Z,3.39
2022-12-03T08:44:57.097Z,3.40
2022-12-03T08:47:25.562Z,3.43
2022-12-03T08:50:23.741Z,3.46
2022-12-03T08:52:53.242Z,3.49
2022-12-03T08:55:37.041Z,3.51
2022-12-03T08:58:36.327Z,3.54
2022-12-03T09:01:07.471Z,3.57
2022-12-03T09:03:35.759Z,3.64
2022-12-03T09:06:04.352Z,3.68
2022-12-03T09:08:32.474Z,3.71
2022-12-03T09:11:01.458Z,3.73
2022-12-03T09:13:29.380Z,3.74
2022-12-03T09:15:58.526Z,3.75
2022-12-03T09:18:27.216Z,3.77
2022-12-03T09:20:56.619Z,3.79
2022-12-03T09:23:24.687Z,3.80
2022-12-03T09:25:52.965Z,3.83
2022-12-03T09:28:21.143Z,3.87
2022-12-03T09:30:49.211Z,3.90
2022-12-03T09:33:17.381Z,3.95
2022-12-03T09:35:45.455Z,4.01
2022-12-03T09:38:13.529Z,4.07
2022-12-03T09:40:42.419Z,4.12
2022-12-03T09:43:12.744Z,4.15
2022-12-03T09:45:40.810Z,4.18
2022-12-03T09:48:09.039Z,4.19
2022-12-03T09:50:41.571Z,4.20
2022-12-03T09:53:17.744Z,4.21
2022-12-03T09:55:49.608Z,4.22
2022-12-03T09:58:19.216Z,4.23
2022-12-03T10:00:48.534Z,4.24
2022-12-03T10:03:23.026Z,4.24
2022-12-03T10:05:53.980Z,4.26
2022-12-03T10:08:26.943Z,4.29
2022-12-03T10:10:57.686Z,4.33
2022-12-03T10:13:31.085Z,4.37
2022-12-03T10:16:01.006Z,4.42
2022-12-03T10:18:38.315Z,4.46
2022-12-03T10:21:23.663Z,4.50
2022-12-03T10:24:16.927Z,4.53
2022-12-03T10:26:46.750Z,4.55
2022-12-03T10:29:33.649Z,4.62
2022-12-03T10:32:12.927Z,4.70
2022-12-03T10:34:42.495Z,4.77
2022-12-03T10:37:18.716Z,4.84
2022-12-03T10:40:08.635Z,4.92
2022-12-03T10:42:39.808Z,5.05
2022-12-03T10:45:25.431Z,5.20
2022-12-03T10:48:07.461Z,5.36
2022-12-03T10:50:36.340Z,5.53
2022-12-03T10:53:05.143Z,5.71
2022-12-03T10:55:39.860Z,5.92
2022-12-03T10:58:26.269Z,6.13
2022-12-03T11:00:56.502Z,6.29
2022-12-03T11:03:26.713Z,6.40
2022-12-03T11:05:56.796Z,6.47
2022-12-03T11:08:35.767Z,6.51
2022-12-03T11:11:08.084Z,6.58
2022-12-03T11:13:36.102Z,6.63
2022-12-03T11:16:06.193Z,6.64
2022-12-03T11:18:37.389Z,6.63
2022-12-03T11:21:05.950Z,6.65
2022-12-03T11:23:46.039Z,6.66
2022-12-03T11:26:19.218Z,6.69
2022-12-03T11:28:47.757Z,6.68
2022-12-03T11:31:48.002Z,6.63
2022-12-03T11:34:19.805Z,6.56
2022-12-03T11:37:10.065Z,6.50
2022-12-03T11:39:51.079Z,6.46
2022-12-03T11:42:27.933Z,6.44
2022-12-03T11:45:05.429Z,6.43
2022-12-03T11:48:00.305Z,6.40
2022-12-03T11:50:41.540Z,6.38
2022-12-03T11:53:15.742Z,6.34
2022-12-03T11:56:06.279Z,6.30
2022-12-03T11:58:38.277Z,6.25
2022-12-03T12:01:08.287Z,6.20
2022-12-03T12:03:36.401Z,6.15
2022-12-03T12:06:13.885Z,6.09
2022-12-03T12:08:56.931Z,6.04
2022-12-03T12:11:41.507Z,5.97
2022-12-03T12:14:13.882Z,5.92
2022-12-03T12:16:52.437Z,5.90
2022-12-03T12:19:54.095Z,5.88
2022-12-03T12:22:25.605Z,5.89
2022-12-03T12:24:58.922Z,5.90
2022-12-03T12:27:51.262Z,5.91
2022-12-03T12:30:24.557Z,5.91
2022-12-03T12:33:13.214Z,5.91
2022-12-03T12:35:42.105Z,5.89
2022-12-03T12:38:11.200Z,5.85
2022-12-03T12:40:40.500Z,5.83
2022-12-03T12:43:24.078Z,5.80
2022-12-03T12:45:55.282Z,5.76
2022-12-03T12:48:25.199Z,5.73
2022-12-03T12:51:08.833Z,5.71
2022-12-03T12:53:38.742Z,5.72
2022-12-03T12:56:20.337Z,5.80
2022-12-03T12:58:48.310Z,5.90
2022-12-03T13:01:29.159Z,6.03
2022-12-03T13:03:58.459Z,6.20
2022-12-03T13:06:27.986Z,6.28
2022-12-03T13:08:57.199Z,6.26
2022-12-03T13:11:25.260Z,6.23
2022-12-03T13:13:53.371Z,6.18
2022-12-03T13:16:32.768Z,6.11
2022-12-03T13:19:01.144Z,6.04
2022-12-03T13:21:39.986Z,5.98
2022-12-03T13:24:35.980Z,5.92
2022-12-03T13:27:22.748Z,5.85
2022-12-03T13:29:59.275Z,5.77
2022-12-03T13:32:31.171Z,5.67
2022-12-03T13:35:06.067Z,5.56
2022-12-03T13:37:34.243Z,5.46
2022-12-03T13:40:22.590Z,5.37
2022-12-03T13:42:50.531Z,5.25
2022-12-03T13:45:24.995Z,5.13
2022-12-03T13:48:00.283Z,5.01
2022-12-03T13:50:39.539Z,4.89
2022-12-03T13:53:37.028Z,4.77
2022-12-03T13:56:17.077Z,4.66
2022-12-03T13:58:45.150Z,4.54
2022-12-03T14:01:13.259Z,4.43
2022-12-03T14:03:41.391Z,4.33
2022-12-03T14:06:09.316Z,4.21
2022-12-03T14:08:37.745Z,4.11
2022-12-03T14:11:06.223Z,3.99
2022-12-03T14:13:34.499Z,3.88
2022-12-03T14:16:02.677Z,3.75
2022-12-03T14:18:30.847Z,3.63
2022-12-03T14:20:59.031Z,3.52
2022-12-03T14:23:27.709Z,3.41
2022-12-03T14:25:55.791Z,3.30
2022-12-03T14:28:23.951Z,3.20
2022-12-03T14:30:53.666Z,3.09
2022-12-03T14:33:21.971Z,2.97
2022-12-03T14:35:53.515Z,2.84
2022-12-03T14:38:22.382Z,2.75
2022-12-03T14:40:50.454Z,2.63
2022-12-03T14:43:18.449Z,2.50
2022-12-03T14:45:46.867Z,2.38
2022-12-03T14:48:14.918Z,2.26
2022-12-03T14:50:43.153Z,2.15
2022-12-03T14:53:11.104Z,2.03
2022-12-03T14:55:39.401Z,1.89
2022-12-03T14:58:07.312Z,1.77
2022-12-03T15:00:35.340Z,1.65
2022-12-03T15:03:03.486Z,1.58
2022-12-03T15:05:31.690Z,1.52
2022-12-03T15:07:59.823Z,1.47
2022-12-03T15:10:27.847Z,1.43
2022-12-03T15:12:56.003Z,1.38
2022-12-03T15:15:24.595Z,1.36
2022-12-03T15:17:52.866Z,1.33
2022-12-03T15:20:20.894Z,1.30
2022-12-03T15:22:49.053Z,1.27
2022-12-03T15:25:24.299Z,1.25
2022-12-03T15:27:52.624Z,1.24
2022-12-03T15:30:20.839Z,1.23
2022-12-03T15:32:49.247Z,1.23
2022-12-03T15:35:18.803Z,1.21
2022-12-03T15:37:47.164Z,1.20
2022-12-03T15:40:15.545Z,1.19
2022-12-03T15:42:43.873Z,1.19
2022-12-03T15:45:15.328Z,1.19
2022-12-03T15:47:44.128Z,1.21
2022-12-03T15:50:14.210Z,1.23
2022-12-03T15:52:42.665Z,1.25
2022-12-03T15:55:10.836Z,1.28
2022-12-03T15:57:39.075Z,1.32
2022-12-03T16:00:08.620Z,1.35
2022-12-03T16:02:41.396Z,1.39
2022-12-03T16:05:12.216Z,1.42
2022-12-03T16:07:40.909Z,1.45
2022-12-03T16:10:11.006Z,1.48
2022-12-03T16:12:39.130Z,1.51
2022-12-03T16:15:07.553Z,1.52
2022-12-03T16:17:35.771Z,1.55
2022-12-03T16:20:04.969Z,1.57
2022-12-03T16:22:33.095Z,1.58
2022-12-03T16:25:01.217Z,1.59
2022-12-03T16:27:29.391Z,1.60
2022-12-03T16:29:57.579Z,1.62
2022-12-03T16:32:25.942Z,1.62
2022-12-03T16:34:53.909Z,1.63
2022-12-03T16:37:21.985Z,1.64
2022-12-03T16:39:52.101Z,1.66
2022-12-03T16:42:20.586Z,1.67
2022-12-03T16:45:12.363Z,1.69
2022-12-03T16:47:40.386Z,1.69
2022-12-03T16:50:12.820Z,1.68
2022-12-03T16:52:47.440Z,1.67
2022-12-03T16:55:15.455Z,1.67
2022-12-03T16:57:43.527Z,1.66
2022-12-03T17:00:12.211Z,1.65
2022-12-03T17:02:40.198Z,1.64
2022-12-03T17:05:09.027Z,1.62
2022-12-03T17:07:37.341Z,1.60
2022-12-03T17:10:06.710Z,1.58
2022-12-03T17:13:07.129Z,1.54
2022-12-03T17:15:22.866Z,1.50
2022-12-03T17:17:50.909Z,1.48
2022-12-03T17:20:20.139Z,1.46
2022-12-03T17:22:48.417Z,1.47
2022-12-03T17:25:16.448Z,1.48
2022-12-03T17:27:48.615Z,1.49
2022-12-03T17:30:17.253Z,1.49
2022-12-03T17:32:45.346Z,1.50
2022-12-03T17:35:13.721Z,1.48
2022-12-03T17:37:41.799Z,1.48
2022-12-03T17:40:12.411Z,1.47
2022-12-03T17:42:40.550Z,1.43
2022-12-03T17:45:09.516Z,1.41
2022-12-03T17:47:37.554Z,1.39
2022-12-03T17:50:07.207Z,1.38
2022-12-03T17:52:35.236Z,1.39
2022-12-03T17:55:15.841Z,1.40
2022-12-03T17:57:49.704Z,1.41
2022-12-03T18:00:18.387Z,1.41
2022-12-03T18:02:46.526Z,1.40
2022-12-03T18:05:14.782Z,1.38
2022-12-03T18:07:42.882Z,1.38
2022-12-03T18:10:12.319Z,1.38
2022-12-03T18:12:40.685Z,1.38
2022-12-03T18:15:09.777Z,1.39
2022-12-03T18:17:38.155Z,1.41
2022-12-03T18:20:07.046Z,1.40
2022-12-03T18:22:35.940Z,1.38
2022-12-03T18:25:05.137Z,1.37
2022-12-03T18:27:34.231Z,1.37
2022-12-03T18:30:02.250Z,1.36
2022-12-03T18:32:30.606Z,1.36
2022-12-03T18:34:58.760Z,1.36
2022-12-03T18:37:28.775Z,1.34
2022-12-03T18:40:00.170Z,1.33
2022-12-03T18:42:28.313Z,1.32
2022-12-03T18:44:57.070Z,1.32
2022-12-03T18:47:29.106Z,1.32
2022-12-03T18:49:57.788Z,1.32
2022-12-03T18:52:26.315Z,1.32
2022-12-03T18:54:55.514Z,1.30
2022-12-03T18:57:24.096Z,1.29
2022-12-03T18:59:52.277Z,1.29
2022-12-03T19:05:10.558Z,1.22
2022-12-03T19:07:38.738Z,1.18
2022-12-03T19:10:08.039Z,1.15
2022-12-03T19:12:36.233Z,1.12
2022-12-03T19:15:06.062Z,1.10
2022-12-03T19:17:39.727Z,1.09
2022-12-03T19:20:09.584Z,1.08
2022-12-03T19:22:37.712Z,1.07
2022-12-03T19:25:06.294Z,1.06
2022-12-03T19:27:34.520Z,1.06
2022-12-03T19:30:02.547Z,1.05
2022-12-03T19:32:30.719Z,1.05
2022-12-03T19:34:59.096Z,1.04
2022-12-03T19:37:27.167Z,1.02
2022-12-03T19:39:55.557Z,0.99
2022-12-03T19:42:25.530Z,0.98
2022-12-03T19:44:53.741Z,0.97
2022-12-03T19:47:24.765Z,0.97
2022-12-03T19:49:53.969Z,0.97
2022-12-03T19:52:22.187Z,0.98
2022-12-03T19:54:50.274Z,0.97
2022-12-03T19:57:23.234Z,0.97
2022-12-03T19:59:52.041Z,0.98
2022-12-03T20:02:20.505Z,1.00
2022-12-03T20:04:48.862Z,1.02
2022-12-03T20:07:16.837Z,1.04
2022-12-03T20:09:45.110Z,1.05
2022-12-03T20:12:13.178Z,1.07
2022-12-03T20:14:41.556Z,1.08
2022-12-03T20:17:09.783Z,1.08
2022-12-03T20:19:38.012Z,1.09
2022-12-03T20:22:06.184Z,1.10
2022-12-03T20:24:34.258Z,1.11
2022-12-03T20:27:03.375Z,1.10
2022-12-03T20:29:31.646Z,1.07
2022-12-03T20:32:00.611Z,1.04
2022-12-03T20:34:28.744Z,0.99
2022-12-03T20:36:56.684Z,0.97
2022-12-03T20:39:25.057Z,0.94
2022-12-03T20:41:53.122Z,0.90
2022-12-03T20:44:21.186Z,0.90
2022-12-03T20:46:49.669Z,0.88
2022-12-03T20:49:17.658Z,0.86
2022-12-03T20:51:46.022Z,0.84
2022-12-03T20:54:14.213Z,0.83
2022-12-03T20:56:42.369Z,0.81
2022-12-03T20:59:13.002Z,0.80
2022-12-03T21:01:42.934Z,0.79
2022-12-03T21:04:18.118Z,0.78
2022-12-03T21:06:46.457Z,0.76
2022-12-03T21:09:14.812Z,0.73
2022-12-03T21:11:43.331Z,0.69
2022-12-03T21:14:11.669Z,0.66
2022-12-03T21:17:06.444Z,0.64
2022-12-03T21:19:28.360Z,0.63
2022-12-03T21:21:56.739Z,0.62
2022-12-03T21:24:24.846Z,0.61
2022-12-03T21:26:53.039Z,0.61
2022-12-03T21:29:21.216Z,0.60
2022-12-03T21:31:49.272Z,0.59
2022-12-03T21:34:17.683Z,0.58
2022-12-03T21:36:46.333Z,0.59
2022-12-03T21:39:14.762Z,0.59
2022-12-03T21:42:22.106Z,0.60
2022-12-03T21:44:30.852Z,0.60
2022-12-03T21:47:09.876Z,0.60
2022-12-03T21:49:42.356Z,0.61
2022-12-03T21:52:11.010Z,0.62
2022-12-03T21:54:39.111Z,0.63
2022-12-03T21:57:07.157Z,0.66
2022-12-03T21:59:35.231Z,0.68
2022-12-03T22:02:03.820Z,0.70
2022-12-03T22:04:32.250Z,0.72
2022-12-03T22:07:00.569Z,0.73
2022-12-03T22:09:28.644Z,0.75
2022-12-03T22:11:59.306Z,0.76
2022-12-03T22:14:28.473Z,0.77
2022-12-03T22:16:56.544Z,0.79
2022-12-03T22:19:26.055Z,0.81
2022-12-03T22:21:54.221Z,0.81
2022-12-03T22:24:23.896Z,0.82
2022-12-03T22:26:53.608Z,0.81
2022-12-03T22:29:22.024Z,0.80
2022-12-03T22:31:50.402Z,0.82
2022-12-03T22:34:18.544Z,0.83
2022-12-03T22:36:46.753Z,0.85
2022-12-03T22:39:14.828Z,0.85
2022-12-03T22:41:42.896Z,0.86
2022-12-03T22:44:10.964Z,0.87
2022-12-03T22:46:39.961Z,0.87
2022-12-03T22:49:08.442Z,0.88
2022-12-03T22:51:36.921Z,0.90
2022-12-03T22:54:06.228Z,0.91
2022-12-03T22:56:34.909Z,0.92
2022-12-03T22:59:03.187Z,0.92
2022-12-03T23:01:33.833Z,0.93
2022-12-03T23:04:02.879Z,0.95
2022-12-03T23:06:30.951Z,0.97
2022-12-03T23:08:59.774Z,0.98
2022-12-03T23:11:28.768Z,0.99
2022-12-03T23:13:59.052Z,1.00
2022-12-03T23:16:30.310Z,1.01
2022-12-03T23:19:00.664Z,1.02
2022-12-03T23:21:32.735Z,1.00
2022-12-03T23:24:03.576Z,0.99
2022-12-03T23:26:36.348Z,0.99
2022-12-03T23:29:06.296Z,1.00
2022-12-03T23:31:35.006Z,1.01
2022-12-03T23:34:04.119Z,1.03
2022-12-03T23:36:33.478Z,1.03
2022-12-03T23:39:01.394Z,1.02
2022-12-03T23:41:29.475Z,1.00
2022-12-03T23:43:57.838Z,0.99
2022-12-03T23:46:27.781Z,0.97
2022-12-03T23:48:58.646Z,0.95
2022-12-03T23:51:27.500Z,0.94
2022-12-03T23:53:56.751Z,0.94
2022-12-03T23:56:29.303Z,0.95
2022-12-03T23:58:58.471Z,0.95
